Aviation Digital Data Service (ADDS)

Output produced by TAFs form (1222 UTC 23 October 2014)
found at http://aviationweather.gov/adds/tafs/
 
KCNM 231124Z 2312/2412 17005KT 1/4SM FG OVC002 
     FM231700 14006KT P6SM SKC 
     FM240000 18004KT P6SM SKC